Time;durP1;ratioP1;P1;durP2;ratioP2;P2;SDS_P1;SDS_P2;PMS_P1;PMS_P2;Temp;Humidity;BMP_temperature;BMP_pressure;BME280_temperature;BME280_humidity;BME280_pressure;Samples;Min_cycle;Max_cycle;Signal;HPM_P1;HPM_P2
2021/10/18 00:01:56;;;;;;;18.02;7.60;;;9.10;99.90;;;;;;4986875;28;20050;-87
2021/10/18 00:04:29;;;;;;;17.93;10.03;;;9.30;99.90;;;;;;5028464;28;20048;-87
2021/10/18 00:06:59;;;;;;;19.33;8.50;;;9.20;99.90;;;;;;5005529;28;20493;-88
2021/10/18 00:09:27;;;;;;;20.65;9.35;;;9.00;99.90;;;;;;4998514;28;20042;-90
2021/10/18 00:11:56;;;;;;;22.45;9.60;;;9.00;99.90;;;;;;5001280;28;20046;-87
2021/10/18 00:14:24;;;;;;;17.73;8.55;;;9.00;99.90;;;;;;5014193;28;20394;-86
2021/10/18 00:16:53;;;;;;;18.17;9.52;;;9.00;99.90;;;;;;4999440;28;20062;-87
2021/10/18 00:19:21;;;;;;;24.42;11.63;;;9.00;99.90;;;;;;5015702;28;20053;-87
2021/10/18 00:21:51;;;;;;;17.85;8.70;;;9.00;99.90;;;;;;4988282;28;20046;-87
2021/10/18 00:24:20;;;;;;;17.40;9.93;;;8.90;99.90;;;;;;5002512;28;20587;-88
2021/10/18 00:26:52;;;;;;;19.55;8.50;;;8.90;99.90;;;;;;4994798;28;20046;-88
2021/10/18 00:29:21;;;;;;;18.30;10.52;;;8.90;99.90;;;;;;4999489;28;20050;-88
2021/10/18 00:31:49;;;;;;;25.30;9.57;;;8.90;99.90;;;;;;4991444;28;20049;-87
2021/10/18 00:34:18;;;;;;;19.70;10.00;;;9.00;99.90;;;;;;4986629;28;20048;-88
2021/10/18 00:36:48;;;;;;;19.25;9.55;;;8.90;99.90;;;;;;4986867;28;20069;-87
2021/10/18 00:39:17;;;;;;;17.85;8.93;;;8.90;99.90;;;;;;5018783;28;20042;-86
2021/10/18 00:41:50;;;;;;;18.58;10.13;;;8.90;99.90;;;;;;4999289;28;20064;-87
2021/10/18 00:44:31;;;;;;;21.63;10.40;;;8.90;99.90;;;;;;5004786;28;20065;-89
2021/10/18 00:47:01;;;;;;;17.67;9.43;;;8.90;99.90;;;;;;5004419;28;20038;-88
2021/10/18 00:49:33;;;;;;;19.25;9.88;;;8.80;99.90;;;;;;5003352;28;20041;-88
2021/10/18 00:52:01;;;;;;;19.90;8.80;;;8.80;99.90;;;;;;4995492;28;20053;-88
2021/10/18 00:54:32;;;;;;;21.95;8.95;;;8.60;99.90;;;;;;5017318;28;20046;-88
2021/10/18 00:56:59;;;;;;;14.82;9.07;;;8.80;99.90;;;;;;4999874;28;20057;-87
2021/10/18 00:59:27;;;;;;;20.40;9.93;;;8.80;99.90;;;;;;4995577;28;20042;-88
2021/10/18 01:01:55;;;;;;;16.40;10.05;;;8.80;99.90;;;;;;4981762;28;20046;-88
2021/10/18 01:04:23;;;;;;;18.70;9.77;;;9.30;99.90;;;;;;5008081;28;20042;-90
2021/10/18 01:06:51;;;;;;;18.58;9.65;;;8.80;99.90;;;;;;5015960;28;20060;-86
2021/10/18 01:09:20;;;;;;;20.50;8.45;;;8.70;99.90;;;;;;5008705;28;20042;-88
2021/10/18 01:11:48;;;;;;;16.42;9.80;;;8.70;99.90;;;;;;5013341;28;20373;-89
2021/10/18 01:14:17;;;;;;;17.88;8.43;;;8.70;99.90;;;;;;4996447;28;20057;-88
2021/10/18 01:16:44;;;;;;;23.00;9.98;;;10.10;99.90;;;;;;4981167;28;20060;-87
2021/10/18 01:19:17;;;;;;;20.85;8.05;;;8.70;99.90;;;;;;4997993;28;20053;-89
2021/10/18 01:22:02;;;;;;;16.30;9.15;;;8.60;99.90;;;;;;4961303;28;20053;-87
2021/10/18 01:24:35;;;;;;;18.23;8.25;;;8.70;99.90;;;;;;4998205;28;20053;-88
2021/10/18 01:27:03;;;;;;;18.55;7.32;;;10.20;99.90;;;;;;4999671;28;20484;-90
2021/10/18 01:29:36;;;;;;;15.80;7.65;;;8.70;99.90;;;;;;5015724;28;20052;-88
2021/10/18 01:32:06;;;;;;;17.23;8.32;;;8.70;99.90;;;;;;5012374;28;20050;-90
2021/10/18 01:34:34;;;;;;;14.90;7.80;;;8.70;99.90;;;;;;4983184;28;20050;-88
2021/10/18 01:37:04;;;;;;;14.65;7.72;;;9.20;99.90;;;;;;4983253;28;20545;-87
2021/10/18 01:39:33;;;;;;;14.73;6.60;;;8.70;99.90;;;;;;5011760;28;20054;-87
2021/10/18 01:42:01;;;;;;;15.80;7.13;;;8.70;99.90;;;;;;5015955;28;20431;-87
2021/10/18 01:44:29;;;;;;;16.02;7.22;;;8.70;99.90;;;;;;4999682;28;20061;-89
2021/10/18 01:46:57;;;;;;;12.93;6.65;;;8.70;99.90;;;;;;5003189;28;20517;-89
2021/10/18 01:49:27;;;;;;;12.52;7.82;;;8.70;99.90;;;;;;4997937;28;20074;-90
2021/10/18 01:51:55;;;;;;;13.38;6.20;;;8.70;99.90;;;;;;4656081;28;9999877;-87
2021/10/18 01:54:26;;;;;;;13.15;6.53;;;8.90;99.90;;;;;;5020921;28;20072;-89
2021/10/18 01:56:54;;;;;;;14.10;6.68;;;8.60;99.90;;;;;;5018574;28;20477;-89
2021/10/18 01:59:26;;;;;;;16.33;6.70;;;8.70;99.90;;;;;;5015157;28;20050;-88
2021/10/18 02:01:54;;;;;;;12.10;6.32;;;8.70;99.90;;;;;;5013835;28;20042;-87
2021/10/18 02:04:23;;;;;;;12.00;5.55;;;8.80;99.90;;;;;;5006355;28;20038;-89
2021/10/18 02:06:51;;;;;;;12.00;6.70;;;8.70;99.90;;;;;;5008015;28;20042;-87
2021/10/18 02:09:19;;;;;;;19.27;6.60;;;9.00;99.90;;;;;;4987470;28;20508;-91
2021/10/18 02:11:47;;;;;;;12.18;5.93;;;8.70;99.90;;;;;;5009583;28;20065;-90
2021/10/18 02:14:15;;;;;;;12.07;5.85;;;8.70;99.90;;;;;;5012045;28;20038;-92
2021/10/18 02:16:43;;;;;;;26.45;6.47;;;8.70;99.90;;;;;;4991344;28;20057;-90
2021/10/18 02:19:11;;;;;;;12.88;6.25;;;8.70;99.90;;;;;;5023455;28;20064;-91
2021/10/18 02:21:39;;;;;;;14.85;7.13;;;8.70;99.90;;;;;;5025586;28;20041;-92
2021/10/18 02:24:06;;;;;;;13.65;6.45;;;8.70;99.90;;;;;;5010919;28;20046;-92
2021/10/18 02:26:35;;;;;;;16.52;6.70;;;8.70;99.90;;;;;;5029052;28;20057;-94
2021/10/18 02:29:03;;;;;;;14.77;5.55;;;8.70;99.90;;;;;;5010458;28;20065;-93
2021/10/18 02:31:36;;;;;;;12.68;7.28;;;9.00;99.90;;;;;;5028713;28;20046;-95
2021/10/18 02:34:04;;;;;;;13.50;6.40;;;9.70;99.90;;;;;;5028420;28;20050;-93
2021/10/18 02:36:34;;;;;;;14.13;6.75;;;8.80;99.90;;;;;;5015733;28;20046;-93
2021/10/18 02:39:03;;;;;;;17.85;8.85;;;8.80;99.90;;;;;;5026090;28;20046;-95
2021/10/18 02:41:32;;;;;;;14.73;7.43;;;8.80;99.90;;;;;;5025763;28;20062;-88
2021/10/18 02:44:00;;;;;;;12.23;6.25;;;8.60;99.90;;;;;;5028948;28;20042;-89
2021/10/18 02:46:29;;;;;;;16.63;7.95;;;8.80;99.90;;;;;;5016325;28;20130;-90
2021/10/18 02:48:57;;;;;;;14.88;6.85;;;8.90;99.90;;;;;;4999900;28;20054;-92
2021/10/18 02:51:24;;;;;;;14.13;6.78;;;8.90;99.90;;;;;;5009403;28;20030;-93
2021/10/18 02:53:53;;;;;;;16.90;8.40;;;8.90;99.90;;;;;;5010394;28;20399;-91
2021/10/18 02:56:23;;;;;;;18.73;6.60;;;8.90;99.90;;;;;;5022483;28;20035;-90
2021/10/18 02:58:51;;;;;;;19.92;8.05;;;8.80;99.90;;;;;;5003586;28;20050;-89
2021/10/18 03:01:19;;;;;;;19.17;7.88;;;8.90;99.90;;;;;;5011361;28;20055;-94
2021/10/18 03:03:47;;;;;;;13.90;7.35;;;8.80;99.90;;;;;;4992994;28;20060;-93
2021/10/18 03:06:15;;;;;;;15.18;7.22;;;8.80;99.90;;;;;;5014830;28;20524;-93
2021/10/18 03:08:44;;;;;;;15.45;8.55;;;8.80;99.90;;;;;;4993213;28;20405;-94
2021/10/18 03:11:13;;;;;;;19.77;7.93;;;8.80;99.90;;;;;;5029937;28;20052;-93
2021/10/18 03:13:40;;;;;;;20.55;9.20;;;8.80;99.90;;;;;;5029734;28;20490;-89
2021/10/18 03:16:08;;;;;;;17.58;9.93;;;9.60;99.90;;;;;;5030993;28;20036;-91
2021/10/18 03:18:38;;;;;;;23.75;11.10;;;8.80;99.90;;;;;;5028571;28;20034;-93
2021/10/18 03:21:07;;;;;;;26.65;13.02;;;8.80;99.90;;;;;;4997912;28;20052;-89
2021/10/18 03:23:35;;;;;;;25.00;11.18;;;9.10;99.90;;;;;;5022537;28;20045;-96
2021/10/18 03:26:03;;;;;;;20.52;11.38;;;8.80;99.90;;;;;;5013946;28;20034;-93
2021/10/18 03:28:30;;;;;;;30.17;13.38;;;8.90;99.90;;;;;;5003908;28;20069;-93
2021/10/18 03:31:00;;;;;;;35.42;16.80;;;8.90;99.90;;;;;;5016416;28;20030;-88
2021/10/18 03:33:39;;;;;;;45.17;21.23;;;8.20;99.90;;;;;;5025787;28;20044;-91
2021/10/18 03:36:08;;;;;;;53.83;25.20;;;9.00;99.90;;;;;;5014880;28;20104;-92
2021/10/18 03:38:38;;;;;;;62.83;30.30;;;9.00;99.90;;;;;;4993611;28;20034;-90
2021/10/18 03:41:06;;;;;;;78.65;33.70;;;9.20;99.90;;;;;;5009156;28;20040;-91
2021/10/18 03:43:34;;;;;;;88.63;37.17;;;9.70;99.90;;;;;;5031207;28;20052;-91
2021/10/18 03:46:02;;;;;;;119.00;39.25;;;10.00;99.90;;;;;;5032250;28;20064;-90
2021/10/18 03:48:36;;;;;;;117.32;42.92;;;9.70;99.90;;;;;;5030684;28;20042;-89
2021/10/18 03:51:04;;;;;;;128.68;45.03;;;9.80;99.90;;;;;;4997000;28;20056;-89
2021/10/18 03:53:33;;;;;;;134.57;42.60;;;10.60;99.90;;;;;;4672110;28;10000313;-87
2021/10/18 03:56:01;;;;;;;131.88;46.33;;;10.10;99.90;;;;;;5022744;28;20050;-93
2021/10/18 03:58:30;;;;;;;130.43;43.03;;;10.20;99.90;;;;;;5025344;28;20052;-91
2021/10/18 04:00:58;;;;;;;158.30;52.67;;;10.30;99.90;;;;;;5007151;28;20051;-90
2021/10/18 04:03:26;;;;;;;132.60;45.40;;;10.40;99.90;;;;;;5007995;28;20057;-91
2021/10/18 04:05:54;;;;;;;128.75;44.53;;;10.60;99.90;;;;;;5011532;28;20046;-87
2021/10/18 04:08:24;;;;;;;155.88;52.33;;;10.60;99.90;;;;;;5016815;28;20046;-94
2021/10/18 04:10:52;;;;;;;150.13;47.57;;;10.70;99.90;;;;;;5025757;28;20053;-91
2021/10/18 04:13:20;;;;;;;131.73;44.63;;;11.00;99.90;;;;;;5024057;28;20053;-90
2021/10/18 04:15:49;;;;;;;148.80;48.65;;;10.80;99.90;;;;;;5023232;28;20053;-90
2021/10/18 04:18:18;;;;;;;140.50;42.60;;;10.80;99.90;;;;;;4995902;28;20034;-87
2021/10/18 04:20:46;;;;;;;127.60;42.65;;;10.90;99.90;;;;;;5027243;28;20064;-91
2021/10/18 04:23:15;;;;;;;142.43;42.70;;;10.90;99.90;;;;;;5009257;28;20053;-92
2021/10/18 04:25:43;;;;;;;125.25;39.78;;;10.90;99.90;;;;;;4995975;28;20065;-91
2021/10/18 04:28:26;;;;;;;122.90;45.75;;;10.90;99.90;;;;;;4978081;28;20056;-89
2021/10/18 04:30:54;;;;;;;123.88;39.33;;;11.00;99.90;;;;;;5007025;28;20100;-89
2021/10/18 04:33:22;;;;;;;124.80;41.05;;;11.00;99.90;;;;;;4974104;28;20061;-87
2021/10/18 04:35:51;;;;;;;116.32;42.58;;;11.00;99.90;;;;;;5020704;28;20048;-88
2021/10/18 04:38:19;;;;;;;112.75;43.55;;;11.10;99.90;;;;;;4998543;28;20053;-86
2021/10/18 04:40:48;;;;;;;109.65;39.17;;;11.10;99.90;;;;;;5015078;28;20049;-89
2021/10/18 04:43:16;;;;;;;117.03;41.20;;;11.20;99.90;;;;;;5023257;28;20050;-88
2021/10/18 04:45:44;;;;;;;106.22;41.58;;;11.20;99.90;;;;;;4983835;28;20051;-88
2021/10/18 04:48:13;;;;;;;116.82;42.88;;;11.20;99.90;;;;;;4997771;28;20065;-91
2021/10/18 04:50:41;;;;;;;114.20;40.78;;;11.20;99.90;;;;;;4989098;28;20057;-90
2021/10/18 04:53:13;;;;;;;111.45;41.45;;;11.30;99.90;;;;;;5002799;28;20042;-89
2021/10/18 04:55:42;;;;;;;101.60;37.70;;;11.30;99.90;;;;;;4998073;28;20065;-91
2021/10/18 04:58:10;;;;;;;88.93;35.55;;;11.40;99.90;;;;;;4960110;28;20050;-91
2021/10/18 05:00:45;;;;;;;97.93;36.58;;;11.40;99.90;;;;;;5001510;28;20047;-89
2021/10/18 05:03:13;;;;;;;100.55;39.17;;;11.40;99.90;;;;;;5003133;28;20046;-88
2021/10/18 05:05:41;;;;;;;80.68;33.78;;;11.40;99.90;;;;;;5002196;28;20073;-89
2021/10/18 05:08:13;;;;;;;86.68;37.58;;;11.30;99.90;;;;;;4994411;28;20050;-88
2021/10/18 05:10:42;;;;;;;78.72;34.40;;;11.30;99.90;;;;;;5006148;28;20061;-90
2021/10/18 05:13:19;;;;;;;97.05;39.20;;;11.30;99.90;;;;;;4999307;28;20046;-86
2021/10/18 05:15:49;;;;;;;93.50;37.63;;;11.30;99.90;;;;;;5010782;28;20081;-88
2021/10/18 05:18:20;;;;;;;80.60;36.95;;;11.20;99.90;;;;;;5021354;28;20509;-88
2021/10/18 05:20:50;;;;;;;87.38;39.70;;;11.20;99.90;;;;;;5006499;28;20060;-90
2021/10/18 05:23:21;;;;;;;;;;;11.20;99.90;;;;;;4997020;28;20050;-88
2021/10/18 05:25:50;;;;;;;76.55;34.72;;;11.20;99.90;;;;;;4990478;28;19922;-88
2021/10/18 05:28:19;;;;;;;71.28;28.48;;;11.10;99.90;;;;;;5006812;28;20054;-90
2021/10/18 05:30:46;;;;;;;60.00;28.33;;;11.10;99.90;;;;;;5019010;28;20050;-91
2021/10/18 05:33:20;;;;;;;58.50;31.23;;;11.00;99.90;;;;;;5005434;28;20046;-88
2021/10/18 05:35:49;;;;;;;69.97;32.08;;;11.00;99.90;;;;;;5006584;28;20517;-88
2021/10/18 05:38:19;;;;;;;86.68;36.42;;;10.90;99.90;;;;;;4987826;28;20053;-88
2021/10/18 05:40:48;;;;;;;55.75;26.30;;;10.90;99.90;;;;;;5006268;28;20508;-89
2021/10/18 05:43:16;;;;;;;53.15;24.45;;;10.90;99.90;;;;;;4988199;28;20046;-88
2021/10/18 05:45:45;;;;;;;57.45;28.75;;;10.80;99.90;;;;;;4996272;28;20046;-88
2021/10/18 05:48:12;;;;;;;53.13;27.10;;;11.10;99.90;;;;;;4999265;28;20058;-88
2021/10/18 05:50:46;;;;;;;56.58;26.23;;;10.70;99.90;;;;;;4985022;28;20046;-89
2021/10/18 05:53:16;;;;;;;55.78;26.05;;;10.70;99.90;;;;;;4993413;28;20053;-89
2021/10/18 05:55:46;;;;;;;64.63;29.13;;;10.70;99.90;;;;;;5002903;28;20054;-88
2021/10/18 05:58:15;;;;;;;56.03;27.63;;;10.60;99.90;;;;;;4987409;28;20058;-89
2021/10/18 06:00:44;;;;;;;55.33;26.83;;;10.60;99.90;;;;;;5019462;28;20061;-88
2021/10/18 06:03:15;;;;;;;54.13;24.75;;;10.60;99.90;;;;;;4998436;28;20046;-84
2021/10/18 06:05:45;;;;;;;56.28;29.83;;;10.60;99.90;;;;;;5002168;28;20057;-85
2021/10/18 06:08:33;;;;;;;50.83;25.25;;;10.50;99.90;;;;;;5003910;28;20042;-86
2021/10/18 06:11:04;;;;;;;59.92;26.75;;;10.50;99.90;;;;;;5012093;28;20056;-86
2021/10/18 06:13:34;;;;;;;77.82;30.73;;;10.50;99.90;;;;;;5005705;28;20042;-86
2021/10/18 06:16:09;;;;;;;85.15;37.50;;;10.50;99.90;;;;;;5009127;28;20051;-93
2021/10/18 06:18:37;;;;;;;64.22;28.83;;;10.40;99.90;;;;;;5002650;28;20043;-88
2021/10/18 06:21:08;;;;;;;64.28;31.10;;;10.50;99.90;;;;;;5020301;28;20057;-87
2021/10/18 06:23:36;;;;;;;63.90;31.75;;;10.50;99.90;;;;;;5004551;28;20507;-86
2021/10/18 06:26:05;;;;;;;64.47;30.13;;;10.50;99.90;;;;;;4996627;28;20055;-88
2021/10/18 06:28:34;;;;;;;66.13;32.55;;;10.50;99.90;;;;;;4998402;28;20050;-88
2021/10/18 06:31:02;;;;;;;51.03;25.73;;;10.50;99.90;;;;;;4997463;28;20046;-88
2021/10/18 06:33:29;;;;;;;59.78;32.13;;;10.50;99.90;;;;;;4993443;28;20046;-88
2021/10/18 06:36:00;;;;;;;50.47;27.45;;;10.50;99.90;;;;;;4987044;28;20058;-89
2021/10/18 06:38:28;;;;;;;59.95;31.05;;;10.50;99.90;;;;;;4998090;28;20038;-89
2021/10/18 06:40:57;;;;;;;43.10;23.63;;;10.50;99.90;;;;;;4993732;28;20042;-90
2021/10/18 06:43:25;;;;;;;47.25;24.08;;;10.50;99.90;;;;;;5001982;28;20053;-86
2021/10/18 06:45:55;;;;;;;47.33;23.23;;;10.50;99.90;;;;;;4996906;28;20058;-90
2021/10/18 06:48:23;;;;;;;44.85;23.35;;;10.50;99.90;;;;;;5016603;28;20054;-91
2021/10/18 06:50:53;;;;;;;47.05;25.45;;;10.60;99.90;;;;;;4987188;28;20054;-87
2021/10/18 06:53:31;;;;;;;51.05;26.05;;;10.50;99.90;;;;;;4961711;28;20054;-88
2021/10/18 06:56:04;;;;;;;49.33;23.02;;;10.50;99.90;;;;;;5008874;28;20046;-89
2021/10/18 06:58:32;;;;;;;50.03;24.83;;;10.50;99.90;;;;;;5003584;28;20058;-88
2021/10/18 07:01:00;;;;;;;51.28;26.15;;;10.50;99.90;;;;;;4991717;28;20054;-86
2021/10/18 07:03:29;;;;;;;43.22;22.88;;;10.10;99.90;;;;;;5004875;28;20053;-89
2021/10/18 07:05:58;;;;;;;46.13;24.85;;;10.50;99.90;;;;;;4986142;28;20046;-88
2021/10/18 07:08:29;;;;;;;43.05;23.60;;;10.60;99.90;;;;;;4989170;28;20522;-89
2021/10/18 07:10:58;;;;;;;50.30;27.40;;;10.60;99.90;;;;;;4986418;28;20042;-86
2021/10/18 07:13:26;;;;;;;48.17;26.98;;;10.70;99.90;;;;;;4997434;28;20461;-88
2021/10/18 07:15:54;;;;;;;48.08;24.70;;;10.60;99.90;;;;;;4989971;28;20053;-87
2021/10/18 07:18:22;;;;;;;47.08;24.65;;;10.70;99.90;;;;;;5005427;28;20046;-88
2021/10/18 07:20:51;;;;;;;52.45;25.63;;;10.70;99.90;;;;;;4974059;28;20050;-85
2021/10/18 07:23:19;;;;;;;46.88;26.50;;;10.70;99.90;;;;;;4994849;28;20053;-92
2021/10/18 07:25:47;;;;;;;47.33;25.08;;;10.70;99.90;;;;;;4991819;28;20069;-88
2021/10/18 07:28:16;;;;;;;50.33;27.90;;;10.80;99.90;;;;;;4995880;28;20057;-89
2021/10/18 07:30:46;;;;;;;56.92;28.05;;;10.80;99.90;;;;;;4994928;28;20058;-90
2021/10/18 07:33:16;;;;;;;58.20;33.15;;;10.80;99.90;;;;;;5011511;28;20042;-87
2021/10/18 07:35:44;;;;;;;82.15;40.80;;;10.90;99.90;;;;;;4989197;28;20058;-92
2021/10/18 07:38:11;;;;;;;94.63;44.20;;;11.00;99.90;;;;;;4972926;28;20552;-91
2021/10/18 07:40:40;;;;;;;103.07;46.95;;;11.10;99.90;;;;;;4975022;28;20085;-91
2021/10/18 07:43:10;;;;;;;89.78;43.38;;;11.30;99.90;;;;;;4988541;28;20062;-91
2021/10/18 07:45:38;;;;;;;101.90;46.77;;;11.50;99.90;;;;;;4978861;28;20509;-91
2021/10/18 07:48:06;;;;;;;89.45;42.72;;;11.60;99.90;;;;;;4988316;28;20300;-89
2021/10/18 07:50:40;;;;;;;90.68;44.72;;;11.70;99.90;;;;;;4991936;28;20054;-88
2021/10/18 07:53:08;;;;;;;92.63;41.97;;;11.80;99.90;;;;;;5002856;28;20410;-88
2021/10/18 07:55:37;;;;;;;92.85;44.00;;;11.90;99.90;;;;;;4989267;28;20050;-86
2021/10/18 07:58:21;;;;;;;78.47;41.47;;;12.00;99.90;;;;;;4981534;28;20520;-86
2021/10/18 08:00:50;;;;;;;81.53;39.53;;;12.10;99.90;;;;;;4988176;28;20053;-88
2021/10/18 08:03:18;;;;;;;75.57;39.55;;;12.20;99.90;;;;;;4990179;28;20054;-89
2021/10/18 08:05:46;;;;;;;81.22;38.00;;;12.30;99.90;;;;;;5003217;28;20049;-87
2021/10/18 08:08:20;;;;;;;71.15;39.63;;;12.40;99.90;;;;;;4987491;28;20046;-88
2021/10/18 08:10:49;;;;;;;67.43;35.15;;;12.50;99.90;;;;;;4987207;28;20544;-87
2021/10/18 08:13:20;;;;;;;60.50;33.67;;;12.60;99.90;;;;;;4989002;28;20053;-86
2021/10/18 08:15:48;;;;;;;62.08;36.45;;;12.70;99.90;;;;;;4990559;28;20050;-88
2021/10/18 08:18:16;;;;;;;58.42;32.10;;;12.80;99.90;;;;;;4971924;28;20058;-88
2021/10/18 08:20:43;;;;;;;55.47;31.55;;;12.80;99.90;;;;;;5001347;28;20569;-90
2021/10/18 08:23:12;;;;;;;54.03;31.13;;;13.00;99.90;;;;;;4990079;28;20038;-87
2021/10/18 08:25:41;;;;;;;54.83;29.42;;;13.00;99.90;;;;;;4991299;28;20538;-88
2021/10/18 08:28:10;;;;;;;42.58;26.85;;;13.10;99.90;;;;;;5004840;28;20054;-89
2021/10/18 08:30:38;;;;;;;56.92;27.92;;;13.20;99.90;;;;;;4994506;28;20054;-88
2021/10/18 08:33:09;;;;;;;47.45;28.70;;;13.20;99.90;;;;;;5000724;28;20050;-90
2021/10/18 08:35:37;;;;;;;40.15;26.20;;;13.30;99.90;;;;;;4977794;28;20058;-89
2021/10/18 08:45:54;;;;;;;;;;;13.60;99.90;;;;;;4996865;28;20050;-91
2021/10/18 08:48:49;;;;;;;41.92;21.65;;;13.60;99.90;;;;;;4993661;28;19922;-87
2021/10/18 08:51:18;;;;;;;38.72;21.02;;;13.70;99.90;;;;;;5008914;28;20058;-91
2021/10/18 08:53:46;;;;;;;36.00;20.60;;;13.70;99.90;;;;;;5009903;28;20050;-89
2021/10/18 08:56:13;;;;;;;32.63;19.83;;;13.70;99.90;;;;;;5005194;28;20226;-87
2021/10/18 08:58:41;;;;;;;33.13;17.27;;;13.80;99.90;;;;;;4993640;28;20422;-88
2021/10/18 09:01:09;;;;;;;33.10;16.98;;;13.90;99.90;;;;;;4995782;28;20054;-87
2021/10/18 09:03:38;;;;;;;27.63;16.48;;;13.90;99.90;;;;;;4997409;28;20058;-88
2021/10/18 09:06:10;;;;;;;29.30;17.27;;;14.00;99.90;;;;;;4648780;28;10000254;-88
2021/10/18 09:09:03;;;;;;;29.30;15.88;;;14.00;99.90;;;;;;5007663;28;20042;-88
2021/10/18 09:11:31;;;;;;;27.85;15.48;;;14.10;99.90;;;;;;5014752;28;20046;-87
2021/10/18 09:14:03;;;;;;;30.42;17.13;;;14.20;99.90;;;;;;4973541;28;20059;-90
2021/10/18 09:16:37;;;;;;;31.33;16.23;;;14.30;99.90;;;;;;4964472;28;20046;-87
2021/10/18 09:19:06;;;;;;;26.08;14.43;;;14.40;99.90;;;;;;4991838;28;20058;-86
2021/10/18 09:21:37;;;;;;;27.10;14.85;;;14.50;99.90;;;;;;5001439;28;20039;-89
2021/10/18 09:24:06;;;;;;;;;;;14.60;99.90;;;;;;5001894;28;20065;-89
2021/10/18 09:26:36;;;;;;;25.70;13.55;;;14.60;99.90;;;;;;5005619;28;19932;-88
2021/10/18 09:29:15;;;;;;;28.67;15.20;;;14.70;99.90;;;;;;5002097;28;20123;-87
2021/10/18 09:32:01;;;;;;;25.48;14.27;;;14.80;99.90;;;;;;4992366;28;20045;-86
2021/10/18 09:34:34;;;;;;;23.38;13.13;;;14.90;99.90;;;;;;5013845;28;20042;-89
2021/10/18 09:37:07;;;;;;;25.35;12.13;;;14.90;99.90;;;;;;4990556;28;20055;-87
2021/10/18 09:39:47;;;;;;;26.10;13.15;;;14.90;99.90;;;;;;4974841;28;20046;-86
2021/10/18 09:42:19;;;;;;;21.00;12.57;;;15.00;99.90;;;;;;4985667;28;20046;-89
2021/10/18 10:54:04;;;;;;;300.90;54.55;;;16.60;99.90;;;;;;5014406;28;20046;-91
2021/10/18 10:56:49;;;;;;;86.07;17.93;;;16.70;99.90;;;;;;4993725;28;20054;-89
2021/10/18 10:59:28;;;;;;;31.53;9.90;;;16.80;99.90;;;;;;5003419;28;20300;-92
2021/10/18 11:02:01;;;;;;;33.65;10.68;;;16.80;99.90;;;;;;5009597;28;20064;-91
2021/10/18 11:04:31;;;;;;;24.38;11.45;;;16.80;99.90;;;;;;4990734;28;20057;-90
2021/10/18 11:07:10;;;;;;;32.03;10.07;;;16.90;99.90;;;;;;4995427;28;20060;-89
2021/10/18 11:09:56;;;;;;;19.55;9.05;;;16.90;99.90;;;;;;4996614;28;20582;-93
2021/10/18 11:12:30;;;;;;;30.85;9.50;;;17.00;99.90;;;;;;4996506;28;20052;-89
2021/10/18 11:15:08;;;;;;;19.27;8.88;;;17.00;99.90;;;;;;4994926;28;20493;-90
2021/10/18 11:17:37;;;;;;;16.25;7.13;;;17.10;99.90;;;;;;5010150;28;20042;-91
2021/10/18 11:20:09;;;;;;;16.73;7.25;;;17.10;99.90;;;;;;5010805;28;20401;-91
2021/10/18 11:22:44;;;;;;;27.33;7.57;;;17.20;99.90;;;;;;4976580;28;20058;-89
2021/10/18 11:25:35;;;;;;;17.88;7.00;;;17.20;99.90;;;;;;4978950;28;20049;-89
2021/10/18 11:28:08;;;;;;;18.35;7.40;;;17.20;99.90;;;;;;4994756;28;20042;-90
2021/10/18 11:30:38;;;;;;;19.10;7.75;;;17.30;99.90;;;;;;4992625;28;20034;-91
2021/10/18 11:33:13;;;;;;;19.55;7.82;;;17.40;99.90;;;;;;4976550;28;20415;-89
2021/10/18 11:35:45;;;;;;;15.65;7.43;;;17.40;99.90;;;;;;4995590;28;20053;-90
2021/10/18 11:38:17;;;;;;;13.77;6.57;;;17.40;99.90;;;;;;4993692;28;20425;-91
2021/10/18 11:40:48;;;;;;;11.32;6.95;;;17.40;99.90;;;;;;4978179;28;20054;-89
2021/10/18 11:43:22;;;;;;;11.77;6.40;;;17.50;99.90;;;;;;5010186;28;20062;-88
2021/10/18 11:45:52;;;;;;;16.92;7.13;;;17.60;99.90;;;;;;4996722;28;20053;-90
2021/10/18 11:48:23;;;;;;;15.43;6.95;;;17.70;99.90;;;;;;4972472;28;20046;-89
2021/10/18 11:51:01;;;;;;;15.60;6.65;;;17.80;99.90;;;;;;4962417;28;20568;-92
2021/10/18 11:53:31;;;;;;;21.90;6.68;;;17.90;99.90;;;;;;4992442;28;20073;-90
2021/10/18 11:56:04;;;;;;;52.40;8.82;;;18.00;99.90;;;;;;5011736;28;20061;-90
2021/10/18 11:58:41;;;;;;;11.23;6.13;;;18.10;99.90;;;;;;4991054;28;20505;-89
2021/10/18 12:01:11;;;;;;;17.98;6.55;;;18.10;99.90;;;;;;4973919;28;20449;-89
2021/10/18 12:03:42;;;;;;;17.63;6.93;;;18.10;99.90;;;;;;4976764;28;20042;-89
2021/10/18 12:06:16;;;;;;;13.45;4.85;;;18.20;99.90;;;;;;4995943;28;20404;-93
2021/10/18 12:08:47;;;;;;;21.27;5.80;;;18.20;99.90;;;;;;4997899;28;20056;-90
2021/10/18 12:11:15;;;;;;;16.50;5.93;;;18.30;99.90;;;;;;5005433;28;20049;-90
2021/10/18 12:13:43;;;;;;;16.65;6.43;;;18.30;99.90;;;;;;5008156;28;20051;-89
2021/10/18 12:16:24;;;;;;;11.98;5.20;;;18.30;99.90;;;;;;5003807;28;20049;-92
2021/10/18 12:18:53;;;;;;;11.55;6.40;;;18.40;99.90;;;;;;4987543;28;20056;-90
2021/10/18 12:21:36;;;;;;;19.00;6.28;;;18.50;99.90;;;;;;4998719;28;20049;-91
2021/10/18 12:24:07;;;;;;;18.33;5.43;;;18.50;99.90;;;;;;5006421;28;20060;-89
2021/10/18 12:26:43;;;;;;;;;;;18.60;99.90;;;;;;4990909;28;20057;-88
2021/10/18 12:29:13;;;;;;;16.98;5.07;;;18.60;99.90;;;;;;5012620;28;19932;-88
2021/10/18 12:31:53;;;;;;;13.60;5.65;;;18.60;99.90;;;;;;4978991;28;20069;-90
2021/10/18 12:34:22;;;;;;;13.05;7.07;;;18.60;99.90;;;;;;4981384;28;20253;-90
2021/10/18 12:37:08;;;;;;;13.05;4.90;;;18.50;99.90;;;;;;4994912;28;20046;-90
2021/10/18 12:40:02;;;;;;;13.82;6.00;;;18.50;99.90;;;;;;4993952;28;20052;-91
2021/10/18 12:42:33;;;;;;;17.25;5.85;;;17.50;99.90;;;;;;4978762;28;20053;-89
2021/10/18 12:45:14;;;;;;;15.68;5.50;;;18.50;99.90;;;;;;4981603;28;20050;-90
2021/10/18 12:47:50;;;;;;;14.15;4.88;;;18.50;99.90;;;;;;4973061;28;20046;-89
2021/10/18 12:50:23;;;;;;;12.30;6.10;;;18.50;99.90;;;;;;4978126;28;20050;-90
2021/10/18 12:53:00;;;;;;;12.40;4.88;;;18.40;99.90;;;;;;4999831;28;20062;-90
2021/10/18 12:55:39;;;;;;;19.00;6.28;;;18.30;99.90;;;;;;4994465;28;20401;-90
2021/10/18 12:58:36;;;;;;;16.65;4.50;;;18.30;99.90;;;;;;5009709;28;20061;-89
2021/10/18 13:01:14;;;;;;;39.35;9.40;;;18.20;99.90;;;;;;4962173;28;20473;-90
2021/10/18 13:03:46;;;;;;;496.98;78.35;;;18.20;99.90;;;;;;4980622;28;20049;-90
2021/10/18 13:06:15;;;;;;;53.10;12.88;;;18.20;99.90;;;;;;4993898;28;20061;-91
2021/10/18 13:08:44;;;;;;;71.38;15.10;;;18.10;99.90;;;;;;5002445;28;20066;-92
2021/10/18 13:11:15;;;;;;;63.42;13.82;;;18.10;99.90;;;;;;5009381;28;20046;-90
2021/10/18 13:13:48;;;;;;;20.13;7.53;;;18.10;99.90;;;;;;4990436;28;20429;-92
2021/10/18 13:16:16;;;;;;;15.95;5.93;;;18.00;99.90;;;;;;4983434;28;20401;-91
2021/10/18 13:18:47;;;;;;;385.65;68.00;;;18.00;99.90;;;;;;4978370;28;20050;-89
2021/10/18 13:21:14;;;;;;;633.65;119.43;;;17.90;99.90;;;;;;4993334;28;20050;-89
2021/10/18 13:23:42;;;;;;;248.85;39.78;;;17.90;99.90;;;;;;4991976;28;20034;-90
2021/10/18 13:26:10;;;;;;;146.60;27.00;;;17.90;99.90;;;;;;4995778;28;20054;-92
2021/10/18 13:28:39;;;;;;;76.70;15.25;;;18.00;99.90;;;;;;4981457;28;20057;-90
2021/10/18 13:31:09;;;;;;;52.65;13.20;;;17.70;99.90;;;;;;4985032;28;20343;-90
2021/10/18 13:33:38;;;;;;;;;;;18.00;99.90;;;;;;5018090;28;20057;-90
2021/10/18 13:36:06;;;;;;;18.63;5.75;;;18.40;99.90;;;;;;4982177;28;19922;-89
2021/10/18 13:38:34;;;;;;;15.98;6.22;;;18.00;99.90;;;;;;5013692;28;20072;-90
2021/10/18 13:41:02;;;;;;;12.57;5.78;;;18.00;99.90;;;;;;4999096;28;20092;-91
2021/10/18 13:43:30;;;;;;;14.68;6.47;;;17.90;99.90;;;;;;4997803;28;20065;-90
2021/10/18 13:45:59;;;;;;;18.55;7.88;;;17.80;99.90;;;;;;4998416;28;20060;-90
2021/10/18 13:48:29;;;;;;;19.73;7.75;;;17.80;99.90;;;;;;5001036;28;20045;-92
2021/10/18 13:50:57;;;;;;;48.15;11.85;;;17.70;99.90;;;;;;5000602;28;20053;-92
2021/10/18 13:53:26;;;;;;;16.17;7.00;;;17.70;99.90;;;;;;4987095;28;20054;-92
2021/10/18 13:55:54;;;;;;;20.52;7.65;;;17.70;99.90;;;;;;4999003;28;20054;-88
2021/10/18 13:58:22;;;;;;;20.50;7.78;;;17.70;99.90;;;;;;5000430;28;20069;-90
2021/10/18 14:00:50;;;;;;;14.45;7.03;;;17.60;99.90;;;;;;5012952;28;20050;-88
2021/10/18 14:03:20;;;;;;;14.65;7.18;;;17.60;99.90;;;;;;5013685;28;20046;-91
2021/10/18 14:05:48;;;;;;;15.82;7.20;;;17.60;99.90;;;;;;4966033;28;20054;-88
2021/10/18 14:08:20;;;;;;;;;;;17.50;99.90;;;;;;5009796;28;20046;-90
2021/10/18 14:10:49;;;;;;;15.07;6.95;;;17.40;99.90;;;;;;4991725;28;19921;-92